createdAt,value
2022-12-09T00:00:16.333Z,66.56
2022-12-09T00:02:47.977Z,66.43
2022-12-09T00:05:19.665Z,66.20
2022-12-09T00:07:51.578Z,66.13
2022-12-09T00:10:26.356Z,66.11
2022-12-09T00:13:00.911Z,66.03
2022-12-09T00:15:32.679Z,66.37
2022-12-09T00:18:05.872Z,66.18
2022-12-09T00:20:38.523Z,66.01
2022-12-09T00:23:10.215Z,66.10
2022-12-09T00:25:42.188Z,65.90
2022-12-09T00:28:13.797Z,65.94
2022-12-09T00:30:45.747Z,66.07
2022-12-09T00:33:17.400Z,66.42
2022-12-09T00:35:48.997Z,66.06
2022-12-09T00:38:20.832Z,65.71
2022-12-09T00:40:52.487Z,66.36
2022-12-09T00:43:24.233Z,66.01
2022-12-09T00:45:55.959Z,66.29
2022-12-09T00:48:28.361Z,66.57
2022-12-09T00:51:01.132Z,66.13
2022-12-09T00:53:33.354Z,66.05
2022-12-09T00:56:05.956Z,66.36
2022-12-09T00:58:37.726Z,65.95
2022-12-09T01:01:09.731Z,66.96
2022-12-09T01:03:41.847Z,66.59
2022-12-09T01:06:18.170Z,66.86
2022-12-09T01:08:51.417Z,67.13
2022-12-09T01:11:28.378Z,67.15
2022-12-09T01:14:01.676Z,67.47
2022-12-09T01:16:35.062Z,67.70
2022-12-09T01:19:09.474Z,67.64
2022-12-09T01:21:41.577Z,67.49
2022-12-09T01:24:14.167Z,67.84
2022-12-09T01:26:46.100Z,67.83
2022-12-09T01:29:18.233Z,68.05
2022-12-09T01:31:50.062Z,68.46
2022-12-09T01:34:22.094Z,68.40
2022-12-09T01:36:53.937Z,68.76
2022-12-09T01:39:25.751Z,68.91
2022-12-09T01:41:57.721Z,69.47
2022-12-09T01:44:34.499Z,70.16
2022-12-09T01:47:22.089Z,70.15
2022-12-09T01:49:53.921Z,70.24
2022-12-09T01:52:25.698Z,70.36
2022-12-09T01:54:58.484Z,70.29
2022-12-09T01:57:30.315Z,70.61
2022-12-09T02:00:01.991Z,70.67
2022-12-09T02:02:37.039Z,70.66
2022-12-09T02:05:09.492Z,70.68
2022-12-09T02:07:46.243Z,70.46
2022-12-09T02:10:20.445Z,70.79
2022-12-09T02:13:40.248Z,70.95
2022-12-09T02:16:17.535Z,71.19
2022-12-09T02:19:09.087Z,71.16
2022-12-09T02:22:01.247Z,71.17
2022-12-09T02:24:43.451Z,71.17
2022-12-09T02:27:37.694Z,71.52
2022-12-09T02:30:17.138Z,71.02
2022-12-09T02:33:17.564Z,71.40
2022-12-09T02:35:56.100Z,71.31
2022-12-09T02:38:32.949Z,71.34
2022-12-09T02:41:12.379Z,71.21
2022-12-09T02:43:54.386Z,71.31
2022-12-09T02:46:34.298Z,71.57
2022-12-09T02:49:09.352Z,71.53
2022-12-09T02:51:45.791Z,71.47
2022-12-09T02:54:20.536Z,71.66
2022-12-09T02:56:57.110Z,71.58
2022-12-09T02:59:36.570Z,71.71
2022-12-09T03:02:12.336Z,71.51
2022-12-09T03:04:59.317Z,71.43
2022-12-09T03:08:03.394Z,71.66
2022-12-09T03:10:44.652Z,71.47
2022-12-09T03:13:25.578Z,71.32
2022-12-09T03:16:11.691Z,71.56
2022-12-09T03:18:47.799Z,71.56
2022-12-09T03:21:22.615Z,71.63
2022-12-09T03:23:57.014Z,71.65
2022-12-09T03:26:32.312Z,71.75
2022-12-09T03:29:11.689Z,71.67
2022-12-09T03:31:44.407Z,71.87
2022-12-09T03:34:22.761Z,72.02
2022-12-09T03:36:55.182Z,71.85
2022-12-09T03:39:32.248Z,72.06
2022-12-09T03:42:11.014Z,72.13
2022-12-09T03:44:52.411Z,72.04
2022-12-09T03:47:24.441Z,71.94
2022-12-09T03:49:56.323Z,72.08
2022-12-09T03:53:02.020Z,72.20
2022-12-09T03:55:36.446Z,72.14
2022-12-09T03:58:10.490Z,71.86
2022-12-09T04:00:43.063Z,71.57
2022-12-09T04:03:17.865Z,71.71
2022-12-09T04:05:49.908Z,71.57
2022-12-09T04:08:21.588Z,71.54
2022-12-09T04:10:53.427Z,71.71
2022-12-09T04:13:25.025Z,71.51
2022-12-09T04:15:56.815Z,71.79
2022-12-09T04:18:28.857Z,72.09
2022-12-09T04:21:01.010Z,71.61
2022-12-09T04:23:35.548Z,71.28
2022-12-09T04:26:14.383Z,71.04
2022-12-09T04:28:46.087Z,70.95
2022-12-09T04:31:19.832Z,70.73
2022-12-09T04:33:51.495Z,70.48
2022-12-09T04:36:26.341Z,70.62
2022-12-09T04:38:57.785Z,70.59
2022-12-09T04:41:29.684Z,70.56
2022-12-09T04:44:01.933Z,70.59
2022-12-09T04:46:34.137Z,70.76
2022-12-09T04:49:06.272Z,70.51
2022-12-09T04:51:40.186Z,70.46
2022-12-09T04:54:13.842Z,70.18
2022-12-09T04:56:45.614Z,70.54
2022-12-09T04:59:18.702Z,70.43
2022-12-09T05:01:53.430Z,70.58
2022-12-09T05:04:25.634Z,70.69
2022-12-09T05:06:57.855Z,70.83
2022-12-09T05:09:31.059Z,71.22
2022-12-09T05:12:02.949Z,71.30
2022-12-09T05:14:35.039Z,71.94
2022-12-09T05:17:07.537Z,71.68
2022-12-09T05:19:39.386Z,71.93
2022-12-09T05:22:11.172Z,71.69
2022-12-09T05:24:44.504Z,71.49
2022-12-09T05:27:16.334Z,71.54
2022-12-09T05:29:48.790Z,71.50
2022-12-09T05:32:21.566Z,71.48
2022-12-09T05:34:53.379Z,71.04
2022-12-09T05:37:25.203Z,71.31
2022-12-09T05:39:58.214Z,71.10
2022-12-09T05:42:29.991Z,71.14
2022-12-09T05:45:01.778Z,71.34
2022-12-09T05:47:33.974Z,71.41
2022-12-09T05:50:08.671Z,71.32
2022-12-09T05:52:40.865Z,71.25
2022-12-09T05:55:12.844Z,71.42
2022-12-09T05:57:51.063Z,71.37
2022-12-09T06:00:23.230Z,71.58
2022-12-09T06:02:55.231Z,71.55
2022-12-09T06:05:27.333Z,71.53
2022-12-09T06:08:03.768Z,71.87
2022-12-09T06:10:44.332Z,71.70
2022-12-09T06:13:16.460Z,71.73
2022-12-09T06:15:48.508Z,71.92
2022-12-09T06:18:22.180Z,71.85
2022-12-09T06:20:54.100Z,72.22
2022-12-09T06:23:29.363Z,71.74
2022-12-09T06:26:00.977Z,71.75
2022-12-09T06:28:33.409Z,71.91
2022-12-09T06:31:08.216Z,71.75
2022-12-09T06:33:57.984Z,71.75
2022-12-09T06:36:33.866Z,72.68
2022-12-09T06:39:10.073Z,72.59
2022-12-09T06:41:43.477Z,72.57
2022-12-09T06:44:23.076Z,72.18
2022-12-09T06:46:58.494Z,72.55
2022-12-09T06:49:30.106Z,72.38
2022-12-09T06:52:01.938Z,72.33
2022-12-09T06:54:38.339Z,72.73
2022-12-09T06:57:10.256Z,72.81
2022-12-09T06:59:42.213Z,73.48
2022-12-09T07:02:15.159Z,72.54
2022-12-09T07:04:55.591Z,72.87
2022-12-09T07:07:28.706Z,72.77
2022-12-09T07:10:04.259Z,72.67
2022-12-09T07:12:38.949Z,72.50
2022-12-09T07:15:12.201Z,72.34
2022-12-09T07:17:44.642Z,72.60
2022-12-09T07:20:17.878Z,71.73
2022-12-09T07:22:50.354Z,72.21
2022-12-09T07:25:22.700Z,71.89
2022-12-09T07:27:54.634Z,70.60
2022-12-09T07:30:26.344Z,69.11
2022-12-09T07:32:59.977Z,67.82
2022-12-09T07:35:35.415Z,64.48
2022-12-09T07:38:07.423Z,61.61
2022-12-09T07:40:43.243Z,57.58
2022-12-09T07:43:17.466Z,53.81
2022-12-09T07:45:55.867Z,51.43
2022-12-09T07:48:30.586Z,49.19
2022-12-09T07:51:04.156Z,47.88
2022-12-09T07:53:37.429Z,47.29
2022-12-09T07:56:12.650Z,46.65
2022-12-09T07:58:48.747Z,45.96
2022-12-09T08:04:30.815Z,44.29
2022-12-09T08:07:04.667Z,41.91
2022-12-09T08:09:36.868Z,40.10
2022-12-09T08:12:11.695Z,37.46
2022-12-09T08:14:46.383Z,34.55
2022-12-09T08:17:18.650Z,34.12
2022-12-09T08:19:50.902Z,32.82
2022-12-09T08:22:25.471Z,31.50
2022-12-09T08:24:57.314Z,31.46
2022-12-09T08:27:29.635Z,33.00
2022-12-09T08:30:01.761Z,35.22
2022-12-09T08:32:39.300Z,36.80
2022-12-09T08:35:15.654Z,38.09
2022-12-09T08:37:48.510Z,39.87
2022-12-09T08:40:22.996Z,41.44
2022-12-09T08:42:54.930Z,43.29
2022-12-09T08:45:26.862Z,44.24
2022-12-09T08:47:58.821Z,45.29
2022-12-09T08:50:31.076Z,46.44
2022-12-09T08:53:03.168Z,47.48
2022-12-09T08:55:39.477Z,48.52
2022-12-09T08:58:13.506Z,49.21
2022-12-09T09:00:45.471Z,50.21
2022-12-09T09:03:17.626Z,51.44
2022-12-09T09:05:50.419Z,52.61
2022-12-09T09:08:22.198Z,52.82
2022-12-09T09:10:55.109Z,53.54
2022-12-09T09:13:28.018Z,53.77
2022-12-09T09:16:02.681Z,54.23
2022-12-09T09:18:35.824Z,55.27
2022-12-09T09:21:12.363Z,55.47
2022-12-09T09:23:46.112Z,55.90
2022-12-09T09:26:31.096Z,56.12
2022-12-09T09:29:02.884Z,56.80
2022-12-09T09:31:38.203Z,56.44
2022-12-09T09:34:13.269Z,56.81
2022-12-09T09:36:45.663Z,57.65
2022-12-09T09:39:24.010Z,58.37
2022-12-09T09:42:04.613Z,58.46
2022-12-09T09:44:51.466Z,57.79
2022-12-09T09:47:59.445Z,56.50
2022-12-09T09:50:33.697Z,53.36
2022-12-09T09:53:27.562Z,46.84
2022-12-09T09:56:03.585Z,42.31
2022-12-09T09:58:45.792Z,38.38
2022-12-09T10:01:20.033Z,36.94
2022-12-09T10:04:13.410Z,32.90
2022-12-09T10:07:20.150Z,31.47
2022-12-09T10:10:02.239Z,31.11
2022-12-09T10:13:02.869Z,31.61
2022-12-09T10:16:31.864Z,34.87
2022-12-09T10:19:43.665Z,38.36
2022-12-09T10:22:21.355Z,40.43
2022-12-09T10:24:57.165Z,41.49
2022-12-09T10:27:44.026Z,42.35
2022-12-09T10:30:20.980Z,42.32
2022-12-09T10:32:56.322Z,43.20
2022-12-09T10:35:33.754Z,43.79
2022-12-09T10:38:11.857Z,44.62
2022-12-09T10:40:47.145Z,46.17
2022-12-09T10:43:39.552Z,47.03
2022-12-09T10:46:21.403Z,48.36
2022-12-09T10:48:58.807Z,48.51
2022-12-09T10:51:39.584Z,49.69
2022-12-09T10:54:40.107Z,50.21
2022-12-09T10:57:11.832Z,51.01
2022-12-09T11:00:26.102Z,52.08
2022-12-09T11:03:03.546Z,53.54
2022-12-09T11:05:35.964Z,54.77
2022-12-09T11:08:08.972Z,55.72
2022-12-09T11:10:50.250Z,57.54
2022-12-09T11:16:32.335Z,58.31
2022-12-09T11:19:05.141Z,58.74
2022-12-09T11:21:37.214Z,60.25
2022-12-09T11:24:24.941Z,60.75
2022-12-09T11:26:58.060Z,61.35
2022-12-09T11:29:30.482Z,62.51
2022-12-09T11:32:05.706Z,63.03
2022-12-09T11:34:37.838Z,62.24
2022-12-09T11:37:11.453Z,62.98
2022-12-09T11:39:51.046Z,64.31
2022-12-09T11:42:32.785Z,64.42
2022-12-09T11:45:18.045Z,64.63
2022-12-09T11:48:22.935Z,64.29
2022-12-09T11:50:51.759Z,64.13
2022-12-09T11:53:40.215Z,64.76
2022-12-09T11:56:20.187Z,66.07
2022-12-09T11:58:59.537Z,65.83
2022-12-09T12:02:10.132Z,66.69
2022-12-09T12:05:08.027Z,65.64
2022-12-09T12:07:52.575Z,65.87
2022-12-09T12:10:28.599Z,65.46
2022-12-09T12:13:33.828Z,65.90
2022-12-09T12:16:17.180Z,65.73
2022-12-09T12:19:02.977Z,66.27
2022-12-09T12:21:40.594Z,65.99
2022-12-09T12:24:22.135Z,65.77
2022-12-09T12:26:57.448Z,65.67
2022-12-09T12:30:04.464Z,65.13
2022-12-09T12:33:11.780Z,65.22
2022-12-09T12:35:53.953Z,64.84
2022-12-09T12:38:52.661Z,64.01
2022-12-09T12:42:00.515Z,64.84
2022-12-09T12:45:16.931Z,65.18
2022-12-09T12:48:07.398Z,65.30
2022-12-09T12:50:57.923Z,64.68
2022-12-09T12:54:09.216Z,65.39
2022-12-09T12:57:19.890Z,66.81
2022-12-09T13:00:07.327Z,66.47
2022-12-09T13:02:54.105Z,66.63
2022-12-09T13:05:38.545Z,66.73
2022-12-09T13:08:20.861Z,66.93
2022-12-09T13:11:01.961Z,66.43
2022-12-09T13:13:59.759Z,66.57
2022-12-09T13:16:36.688Z,66.89
2022-12-09T13:19:23.876Z,67.71
2022-12-09T13:21:56.601Z,67.32
2022-12-09T13:25:14.672Z,68.08
2022-12-09T13:28:00.383Z,68.84
2022-12-09T13:30:51.144Z,68.13
2022-12-09T13:33:59.140Z,68.44
2022-12-09T13:36:40.381Z,69.14
2022-12-09T13:39:58.660Z,69.51
2022-12-09T13:42:48.814Z,69.41
2022-12-09T13:45:34.045Z,69.96
2022-12-09T13:48:17.316Z,69.12
2022-12-09T13:50:57.362Z,69.73
2022-12-09T13:53:58.414Z,70.47
2022-12-09T13:56:36.674Z,70.38
2022-12-09T13:59:23.663Z,70.61
2022-12-09T14:02:17.621Z,71.16
2022-12-09T14:04:59.838Z,71.54
2022-12-09T14:07:43.054Z,71.27
2022-12-09T14:10:45.650Z,71.94
2022-12-09T14:13:32.426Z,71.32
2022-12-09T14:16:13.166Z,70.62
2022-12-09T14:18:44.941Z,71.10
2022-12-09T14:21:19.367Z,72.02
2022-12-09T14:24:20.266Z,72.95
2022-12-09T14:27:10.117Z,72.01
2022-12-09T14:29:55.364Z,71.88
2022-12-09T14:32:26.881Z,72.71
2022-12-09T14:35:10.538Z,73.09
2022-12-09T14:38:02.172Z,72.91
2022-12-09T14:40:42.836Z,72.37
2022-12-09T14:43:32.975Z,72.96
2022-12-09T14:46:19.218Z,72.98
2022-12-09T14:49:12.209Z,72.63
2022-12-09T14:52:11.329Z,72.51
2022-12-09T14:54:45.879Z,73.07
2022-12-09T14:57:28.748Z,73.26
2022-12-09T15:00:00.327Z,72.54
2022-12-09T15:02:32.088Z,73.00
2022-12-09T15:05:15.631Z,73.39
2022-12-09T15:07:48.560Z,73.03
2022-12-09T15:10:38.700Z,73.30
2022-12-09T15:13:10.372Z,72.88
2022-12-09T15:15:42.916Z,72.87
2022-12-09T15:18:21.713Z,72.87
2022-12-09T15:20:59.255Z,72.78
2022-12-09T15:23:34.682Z,72.92
2022-12-09T15:26:44.229Z,72.27
2022-12-09T15:29:22.844Z,72.78
2022-12-09T15:31:54.663Z,72.72
2022-12-09T15:34:26.753Z,72.98
2022-12-09T15:37:08.723Z,73.18
2022-12-09T15:39:50.331Z,72.53
2022-12-09T15:42:27.396Z,72.37
2022-12-09T15:45:11.894Z,72.30
2022-12-09T15:47:48.947Z,71.88
2022-12-09T15:50:39.108Z,72.43
2022-12-09T15:53:26.613Z,72.35
2022-12-09T15:56:07.226Z,71.78
2022-12-09T15:58:51.395Z,72.67
2022-12-09T16:01:30.302Z,72.39
2022-12-09T16:04:04.807Z,71.80
2022-12-09T16:06:40.883Z,72.31
2022-12-09T16:09:15.773Z,72.18
2022-12-09T16:11:54.871Z,72.72
2022-12-09T16:14:40.052Z,72.97
2022-12-09T16:17:54.651Z,72.39
2022-12-09T16:20:36.370Z,72.36
2022-12-09T16:23:20.680Z,72.32
2022-12-09T16:26:03.180Z,72.74
2022-12-09T16:28:40.052Z,72.19
2022-12-09T16:31:18.644Z,71.89
2022-12-09T16:33:51.459Z,72.14
2022-12-09T16:36:31.779Z,72.20
2022-12-09T16:39:08.641Z,71.99
2022-12-09T16:42:00.641Z,72.46
2022-12-09T16:44:37.056Z,71.87
2022-12-09T16:47:16.402Z,72.06
2022-12-09T16:49:48.778Z,72.12
2022-12-09T16:52:30.151Z,72.14
2022-12-09T16:55:03.388Z,72.21
2022-12-09T16:57:35.536Z,71.64
2022-12-09T17:00:07.872Z,71.55
2022-12-09T17:02:42.662Z,71.86
2022-12-09T17:05:14.258Z,71.83
2022-12-09T17:07:46.167Z,71.40
2022-12-09T17:10:18.143Z,71.07
2022-12-09T17:12:54.121Z,71.25
2022-12-09T17:15:25.828Z,71.31
2022-12-09T17:17:57.479Z,71.22
2022-12-09T17:20:33.751Z,70.73
2022-12-09T17:23:05.710Z,71.37
2022-12-09T17:25:37.265Z,71.47
2022-12-09T17:28:09.184Z,71.89
2022-12-09T17:30:40.778Z,71.96
2022-12-09T17:33:12.408Z,71.58
2022-12-09T17:35:44.755Z,71.54
2022-12-09T17:38:16.792Z,71.53
2022-12-09T17:40:48.719Z,71.64
2022-12-09T17:43:23.320Z,72.19
2022-12-09T17:45:55.163Z,72.57
2022-12-09T17:48:28.375Z,72.52
2022-12-09T17:51:05.250Z,72.32
2022-12-09T17:53:42.262Z,73.36
2022-12-09T17:56:17.902Z,72.80
2022-12-09T17:59:03.098Z,73.37
2022-12-09T18:01:40.371Z,72.89
2022-12-09T18:04:13.149Z,73.35
2022-12-09T18:06:46.029Z,73.46
2022-12-09T18:09:19.026Z,72.49
2022-12-09T18:11:51.855Z,72.93
2022-12-09T18:14:26.308Z,72.68
2022-12-09T18:17:05.117Z,72.58
2022-12-09T18:19:37.038Z,73.04
2022-12-09T18:22:08.724Z,73.19
2022-12-09T18:24:40.660Z,73.41
2022-12-09T18:27:12.243Z,73.31
2022-12-09T18:29:43.874Z,73.09
2022-12-09T18:32:17.396Z,73.38
2022-12-09T18:34:49.330Z,73.10
2022-12-09T18:37:23.657Z,73.67
2022-12-09T18:39:55.661Z,73.65
2022-12-09T18:42:29.910Z,73.25
2022-12-09T18:45:04.372Z,73.36
2022-12-09T18:47:36.033Z,74.89
2022-12-09T18:50:08.329Z,74.51
2022-12-09T18:52:41.220Z,74.30
2022-12-09T18:55:13.843Z,74.16
2022-12-09T18:57:45.408Z,73.95
2022-12-09T19:00:17.592Z,73.43
2022-12-09T19:02:49.262Z,72.81
2022-12-09T19:05:22.208Z,72.93
2022-12-09T19:07:53.869Z,72.53
2022-12-09T19:10:25.571Z,72.72
2022-12-09T19:12:57.312Z,72.56
2022-12-09T19:15:29.249Z,72.77
2022-12-09T19:18:01.672Z,73.10
2022-12-09T19:20:35.492Z,72.29
2022-12-09T19:23:08.950Z,71.38
2022-12-09T19:25:42.227Z,71.71
2022-12-09T19:28:16.434Z,72.15
2022-12-09T19:30:49.896Z,71.91
2022-12-09T19:33:21.744Z,71.79
2022-12-09T19:35:53.386Z,71.40
2022-12-09T19:38:27.802Z,72.20
2022-12-09T19:41:01.787Z,71.50
2022-12-09T19:43:34.228Z,71.90
2022-12-09T19:46:08.599Z,71.39
2022-12-09T19:48:44.274Z,71.45
2022-12-09T19:51:17.689Z,71.30
2022-12-09T19:53:52.773Z,71.28
2022-12-09T19:56:25.289Z,71.27
2022-12-09T19:58:58.279Z,71.82
2022-12-09T20:01:35.593Z,71.43
2022-12-09T20:04:48.028Z,71.41
2022-12-09T20:07:15.275Z,71.11
2022-12-09T20:09:50.082Z,71.33
2022-12-09T20:12:25.695Z,71.10
2022-12-09T20:14:57.638Z,71.25
2022-12-09T20:17:29.388Z,71.45
2022-12-09T20:20:01.035Z,70.94
2022-12-09T20:22:32.705Z,71.51
2022-12-09T20:25:05.527Z,71.14
2022-12-09T20:27:37.216Z,71.02
2022-12-09T20:30:09.666Z,71.76
2022-12-09T20:32:43.879Z,71.95
2022-12-09T20:35:16.004Z,71.96
2022-12-09T20:37:47.899Z,72.43
2022-12-09T20:40:19.496Z,72.22
2022-12-09T20:42:51.137Z,73.22
2022-12-09T20:45:22.761Z,72.60
2022-12-09T20:47:54.387Z,72.71
2022-12-09T20:50:25.983Z,72.35
2022-12-09T20:53:01.285Z,72.39
2022-12-09T20:55:32.845Z,72.71
2022-12-09T20:58:08.636Z,72.68
2022-12-09T21:00:40.621Z,73.06
2022-12-09T21:03:12.265Z,72.72
2022-12-09T21:05:43.931Z,72.62
2022-12-09T21:08:16.538Z,72.78
2022-12-09T21:10:48.510Z,73.02
2022-12-09T21:13:20.188Z,72.52
2022-12-09T21:15:51.987Z,72.35
2022-12-09T21:18:23.688Z,72.53
2022-12-09T21:20:57.632Z,72.73
2022-12-09T21:23:34.848Z,73.18
2022-12-09T21:26:15.406Z,72.41
2022-12-09T21:28:48.155Z,72.39
2022-12-09T21:31:27.127Z,72.30
2022-12-09T21:34:01.824Z,72.81
2022-12-09T21:36:37.160Z,73.07
2022-12-09T21:39:12.184Z,72.53
2022-12-09T21:41:44.355Z,72.97
2022-12-09T21:44:20.130Z,72.81
2022-12-09T21:46:52.106Z,72.32
2022-12-09T21:49:23.937Z,72.54
2022-12-09T21:51:55.504Z,72.41
2022-12-09T21:54:27.217Z,71.75
2022-12-09T21:56:59.272Z,71.96
2022-12-09T21:59:32.284Z,71.41
2022-12-09T22:02:04.004Z,72.04
2022-12-09T22:04:35.727Z,72.20
2022-12-09T22:07:07.297Z,71.16
2022-12-09T22:09:38.957Z,71.71
2022-12-09T22:12:10.531Z,71.30
2022-12-09T22:14:42.241Z,71.22
2022-12-09T22:17:14.174Z,70.99
2022-12-09T22:19:45.862Z,71.06
2022-12-09T22:22:17.461Z,71.67
2022-12-09T22:24:49.264Z,71.14
2022-12-09T22:27:20.878Z,71.13
2022-12-09T22:29:55.244Z,70.87
2022-12-09T22:32:37.873Z,70.72
2022-12-09T22:35:12.443Z,70.74
2022-12-09T22:37:44.456Z,70.68
2022-12-09T22:40:16.621Z,69.81
2022-12-09T22:42:48.204Z,69.68
2022-12-09T22:45:22.569Z,70.21
2022-12-09T22:47:54.872Z,70.16
2022-12-09T22:50:26.547Z,70.01
2022-12-09T22:52:58.152Z,70.05
2022-12-09T22:55:29.804Z,69.99
2022-12-09T22:58:01.444Z,69.92
2022-12-09T23:00:35.779Z,69.92
2022-12-09T23:03:07.808Z,69.96
2022-12-09T23:05:39.441Z,70.18
2022-12-09T23:08:11.305Z,69.75
2022-12-09T23:10:43.036Z,69.44
2022-12-09T23:13:14.583Z,69.92
2022-12-09T23:15:46.242Z,69.76
2022-12-09T23:18:18.171Z,69.73
2022-12-09T23:20:50.608Z,69.49
2022-12-09T23:23:22.190Z,69.19
2022-12-09T23:25:53.832Z,69.65
2022-12-09T23:28:26.976Z,70.17
2022-12-09T23:31:02.545Z,70.22
2022-12-09T23:33:35.336Z,69.53
2022-12-09T23:36:08.724Z,69.41
2022-12-09T23:38:40.766Z,69.34
2022-12-09T23:41:12.724Z,69.57
2022-12-09T23:43:46.228Z,69.31
2022-12-09T23:46:26.192Z,69.91
2022-12-09T23:49:07.738Z,70.17
2022-12-09T23:51:46.212Z,70.32
2022-12-09T23:54:18.741Z,70.35
2022-12-09T23:56:53.428Z,69.78
2022-12-09T23:59:25.291Z,70.15
